Terminal Aerodrome Forecast
Issued by NWS

Current Version | Previous Version | Text Only | Print | Product List | Glossary On
Versions: 1 2 3 4 5 6 7 8 9 10 11 12 13 14 15 16 17 18 19 20 21 22 23 24 25 26 27 28 29 30 31 32 33 34 35 36
000
FTAK31 PAFA 240541
TAFAQT
TAF
PAQT 240541Z 2406/2506 08025KT 3/4SM -SN BR VV016
     FM241200 08022G30KT 1/2SM -SN FG OVC007
     FM241800 07022G30KT 1 1/2SM -SN BR OVC015
     FM250300 05015KT 4SM -SN BR OVC025=

USA.gov is the U.S. government's official web portal to all federal, state and local government web resources and services.